sensor_id;sensor_type;location;lat;lon;timestamp;temperature;humidity
66035;HTU21D;52805;51.074;5.842;2024-02-28T00:01:51;3.93;43.40
66035;HTU21D;52805;51.074;5.842;2024-02-28T00:04:17;3.91;43.35
66035;HTU21D;52805;51.074;5.842;2024-02-28T00:06:42;3.91;43.43
66035;HTU21D;52805;51.074;5.842;2024-02-28T00:09:09;3.90;44.61
66035;HTU21D;52805;51.074;5.842;2024-02-28T00:11:35;3.92;44.83
66035;HTU21D;52805;51.074;5.842;2024-02-28T00:14:01;3.93;45.10
66035;HTU21D;52805;51.074;5.842;2024-02-28T00:16:28;3.94;45.74
66035;HTU21D;52805;51.074;5.842;2024-02-28T00:18:53;3.97;45.98
66035;HTU21D;52805;51.074;5.842;2024-02-28T00:21:19;3.99;45.67
66035;HTU21D;52805;51.074;5.842;2024-02-28T00:23:44;4.02;45.85
66035;HTU21D;52805;51.074;5.842;2024-02-28T00:26:12;4.04;46.28
66035;HTU21D;52805;51.074;5.842;2024-02-28T00:28:37;4.07;45.99
66035;HTU21D;52805;51.074;5.842;2024-02-28T00:31:03;4.07;46.03
66035;HTU21D;52805;51.074;5.842;2024-02-28T00:33:29;4.08;46.28
66035;HTU21D;52805;51.074;5.842;2024-02-28T00:35:54;4.10;46.23
66035;HTU21D;52805;51.074;5.842;2024-02-28T00:38:20;4.13;46.47
66035;HTU21D;52805;51.074;5.842;2024-02-28T00:40:46;4.16;46.61
66035;HTU21D;52805;51.074;5.842;2024-02-28T00:43:11;4.19;46.50
66035;HTU21D;52805;51.074;5.842;2024-02-28T00:45:38;4.21;47.18
66035;HTU21D;52805;51.074;5.842;2024-02-28T00:48:03;4.21;47.13
66035;HTU21D;52805;51.074;5.842;2024-02-28T00:50:29;4.22;46.37
66035;HTU21D;52805;51.074;5.842;2024-02-28T00:52:55;4.22;46.32
66035;HTU21D;52805;51.074;5.842;2024-02-28T00:55:21;4.23;46.36
66035;HTU21D;52805;51.074;5.842;2024-02-28T00:57:46;4.22;46.93
66035;HTU21D;52805;51.074;5.842;2024-02-28T01:00:12;4.20;46.99
66035;HTU21D;52805;51.074;5.842;2024-02-28T01:02:39;4.20;47.11
66035;HTU21D;52805;51.074;5.842;2024-02-28T01:05:05;4.20;46.47
66035;HTU21D;52805;51.074;5.842;2024-02-28T01:07:31;4.20;47.21
66035;HTU21D;52805;51.074;5.842;2024-02-28T01:09:56;4.19;47.17
66035;HTU21D;52805;51.074;5.842;2024-02-28T01:12:22;4.20;46.91
66035;HTU21D;52805;51.074;5.842;2024-02-28T01:14:48;4.22;47.80
66035;HTU21D;52805;51.074;5.842;2024-02-28T01:17:13;4.24;47.28
66035;HTU21D;52805;51.074;5.842;2024-02-28T01:19:39;4.29;47.12
66035;HTU21D;52805;51.074;5.842;2024-02-28T01:22:05;4.31;47.25
66035;HTU21D;52805;51.074;5.842;2024-02-28T01:24:30;4.32;47.24
66035;HTU21D;52805;51.074;5.842;2024-02-28T01:26:58;4.34;47.09
66035;HTU21D;52805;51.074;5.842;2024-02-28T01:29:24;4.38;48.07
66035;HTU21D;52805;51.074;5.842;2024-02-28T01:31:50;4.41;48.82
66035;HTU21D;52805;51.074;5.842;2024-02-28T01:34:15;4.47;49.01
66035;HTU21D;52805;51.074;5.842;2024-02-28T01:36:41;4.47;49.65
66035;HTU21D;52805;51.074;5.842;2024-02-28T01:39:07;4.50;50.05
66035;HTU21D;52805;51.074;5.842;2024-02-28T01:41:33;4.53;49.29
66035;HTU21D;52805;51.074;5.842;2024-02-28T01:43:59;4.56;50.18
66035;HTU21D;52805;51.074;5.842;2024-02-28T01:46:29;4.58;49.70
66035;HTU21D;52805;51.074;5.842;2024-02-28T01:48:55;4.58;49.88
66035;HTU21D;52805;51.074;5.842;2024-02-28T01:51:24;4.57;50.79
66035;HTU21D;52805;51.074;5.842;2024-02-28T01:53:52;4.60;50.82
66035;HTU21D;52805;51.074;5.842;2024-02-28T01:56:20;4.62;51.18
66035;HTU21D;52805;51.074;5.842;2024-02-28T01:58:47;4.64;51.78
66035;HTU21D;52805;51.074;5.842;2024-02-28T02:01:14;4.64;51.69
66035;HTU21D;52805;51.074;5.842;2024-02-28T02:03:48;4.67;51.43
66035;HTU21D;52805;51.074;5.842;2024-02-28T02:06:14;4.68;51.60
66035;HTU21D;52805;51.074;5.842;2024-02-28T02:08:40;4.71;52.98
66035;HTU21D;52805;51.074;5.842;2024-02-28T02:11:07;4.74;53.28
66035;HTU21D;52805;51.074;5.842;2024-02-28T02:13:33;4.78;53.10
66035;HTU21D;52805;51.074;5.842;2024-02-28T02:16:00;4.79;53.17
66035;HTU21D;52805;51.074;5.842;2024-02-28T02:18:26;4.82;53.34
66035;HTU21D;52805;51.074;5.842;2024-02-28T02:20:59;4.81;53.64
66035;HTU21D;52805;51.074;5.842;2024-02-28T02:23:26;4.79;54.20
66035;HTU21D;52805;51.074;5.842;2024-02-28T02:25:52;4.79;55.76
66035;HTU21D;52805;51.074;5.842;2024-02-28T02:28:18;4.80;55.42
66035;HTU21D;52805;51.074;5.842;2024-02-28T02:30:44;4.81;56.55
66035;HTU21D;52805;51.074;5.842;2024-02-28T02:33:12;4.84;56.93
66035;HTU21D;52805;51.074;5.842;2024-02-28T02:35:37;4.87;56.14
66035;HTU21D;52805;51.074;5.842;2024-02-28T02:38:03;4.82;57.37
66035;HTU21D;52805;51.074;5.842;2024-02-28T02:40:29;4.88;57.91
66035;HTU21D;52805;51.074;5.842;2024-02-28T02:42:55;4.84;57.15
66035;HTU21D;52805;51.074;5.842;2024-02-28T02:45:20;4.84;57.57
66035;HTU21D;52805;51.074;5.842;2024-02-28T02:47:46;4.81;58.62
66035;HTU21D;52805;51.074;5.842;2024-02-28T02:50:12;4.79;58.22
66035;HTU21D;52805;51.074;5.842;2024-02-28T02:52:38;4.79;58.23
66035;HTU21D;52805;51.074;5.842;2024-02-28T02:55:04;4.79;59.26
66035;HTU21D;52805;51.074;5.842;2024-02-28T02:57:30;4.78;58.80
66035;HTU21D;52805;51.074;5.842;2024-02-28T02:59:56;4.78;59.33
66035;HTU21D;52805;51.074;5.842;2024-02-28T03:02:22;4.77;59.02
66035;HTU21D;52805;51.074;5.842;2024-02-28T03:04:48;4.74;58.68
66035;HTU21D;52805;51.074;5.842;2024-02-28T03:07:13;4.73;59.73
66035;HTU21D;52805;51.074;5.842;2024-02-28T03:09:40;4.77;60.18
66035;HTU21D;52805;51.074;5.842;2024-02-28T03:12:05;4.76;59.91
66035;HTU21D;52805;51.074;5.842;2024-02-28T03:14:31;4.75;60.13
66035;HTU21D;52805;51.074;5.842;2024-02-28T03:16:57;4.76;58.77
66035;HTU21D;52805;51.074;5.842;2024-02-28T03:19:23;4.72;58.78
66035;HTU21D;52805;51.074;5.842;2024-02-28T03:21:49;4.72;59.28
66035;HTU21D;52805;51.074;5.842;2024-02-28T03:24:14;4.71;60.48
66035;HTU21D;52805;51.074;5.842;2024-02-28T03:26:40;4.73;60.42
66035;HTU21D;52805;51.074;5.842;2024-02-28T03:29:06;4.73;60.14
66035;HTU21D;52805;51.074;5.842;2024-02-28T03:31:32;4.75;60.06
66035;HTU21D;52805;51.074;5.842;2024-02-28T03:33:57;4.75;60.28
66035;HTU21D;52805;51.074;5.842;2024-02-28T03:36:23;4.77;61.12
66035;HTU21D;52805;51.074;5.842;2024-02-28T03:38:49;4.75;60.45
66035;HTU21D;52805;51.074;5.842;2024-02-28T03:41:14;4.74;59.44
66035;HTU21D;52805;51.074;5.842;2024-02-28T03:43:40;4.71;59.21
66035;HTU21D;52805;51.074;5.842;2024-02-28T03:46:06;4.73;60.41
66035;HTU21D;52805;51.074;5.842;2024-02-28T03:48:32;4.72;59.59
66035;HTU21D;52805;51.074;5.842;2024-02-28T03:50:57;4.69;59.48
66035;HTU21D;52805;51.074;5.842;2024-02-28T03:53:23;4.64;59.02
66035;HTU21D;52805;51.074;5.842;2024-02-28T03:55:50;4.61;59.25
66035;HTU21D;52805;51.074;5.842;2024-02-28T03:58:16;4.58;59.06
66035;HTU21D;52805;51.074;5.842;2024-02-28T04:00:41;4.53;59.39
66035;HTU21D;52805;51.074;5.842;2024-02-28T04:03:10;4.54;59.68
66035;HTU21D;52805;51.074;5.842;2024-02-28T04:05:35;4.60;60.76
66035;HTU21D;52805;51.074;5.842;2024-02-28T04:08:01;4.62;61.21
66035;HTU21D;52805;51.074;5.842;2024-02-28T04:10:27;4.58;60.35
66035;HTU21D;52805;51.074;5.842;2024-02-28T04:12:52;4.57;60.88
66035;HTU21D;52805;51.074;5.842;2024-02-28T04:15:18;4.59;60.64
66035;HTU21D;52805;51.074;5.842;2024-02-28T04:17:47;4.64;60.76
66035;HTU21D;52805;51.074;5.842;2024-02-28T04:20:13;4.61;60.54
66035;HTU21D;52805;51.074;5.842;2024-02-28T04:22:39;4.61;60.99
66035;HTU21D;52805;51.074;5.842;2024-02-28T04:25:07;4.62;62.12
66035;HTU21D;52805;51.074;5.842;2024-02-28T04:27:37;4.62;61.57
66035;HTU21D;52805;51.074;5.842;2024-02-28T04:30:04;4.60;61.67
66035;HTU21D;52805;51.074;5.842;2024-02-28T04:32:30;4.59;61.70
66035;HTU21D;52805;51.074;5.842;2024-02-28T04:34:55;4.62;61.36
66035;HTU21D;52805;51.074;5.842;2024-02-28T04:37:21;4.63;61.41
66035;HTU21D;52805;51.074;5.842;2024-02-28T04:39:47;4.62;61.51
66035;HTU21D;52805;51.074;5.842;2024-02-28T04:42:13;4.56;61.44
66035;HTU21D;52805;51.074;5.842;2024-02-28T04:44:39;4.56;61.33
66035;HTU21D;52805;51.074;5.842;2024-02-28T04:47:05;4.52;60.62
66035;HTU21D;52805;51.074;5.842;2024-02-28T04:49:31;4.51;61.11
66035;HTU21D;52805;51.074;5.842;2024-02-28T04:51:56;4.52;61.16
66035;HTU21D;52805;51.074;5.842;2024-02-28T04:54:22;4.56;61.45
66035;HTU21D;52805;51.074;5.842;2024-02-28T04:56:48;4.58;61.91
66035;HTU21D;52805;51.074;5.842;2024-02-28T04:59:13;4.63;62.14
66035;HTU21D;52805;51.074;5.842;2024-02-28T05:01:39;4.63;61.05
66035;HTU21D;52805;51.074;5.842;2024-02-28T05:04:08;4.62;61.83
66035;HTU21D;52805;51.074;5.842;2024-02-28T05:06:34;4.60;60.58
66035;HTU21D;52805;51.074;5.842;2024-02-28T05:09:00;4.61;61.07
66035;HTU21D;52805;51.074;5.842;2024-02-28T05:11:25;4.57;61.89
66035;HTU21D;52805;51.074;5.842;2024-02-28T05:13:51;4.59;62.16
66035;HTU21D;52805;51.074;5.842;2024-02-28T05:16:17;4.56;61.55
66035;HTU21D;52805;51.074;5.842;2024-02-28T05:18:46;4.58;62.23
66035;HTU21D;52805;51.074;5.842;2024-02-28T05:21:12;4.57;62.38
66035;HTU21D;52805;51.074;5.842;2024-02-28T05:23:39;4.56;61.72
66035;HTU21D;52805;51.074;5.842;2024-02-28T05:26:05;4.53;62.95
66035;HTU21D;52805;51.074;5.842;2024-02-28T05:28:35;4.56;61.99
66035;HTU21D;52805;51.074;5.842;2024-02-28T05:31:22;4.58;62.93
66035;HTU21D;52805;51.074;5.842;2024-02-28T05:33:50;4.61;63.15
66035;HTU21D;52805;51.074;5.842;2024-02-28T05:36:16;4.60;63.37
66035;HTU21D;52805;51.074;5.842;2024-02-28T05:38:42;4.63;62.76
66035;HTU21D;52805;51.074;5.842;2024-02-28T05:41:07;4.64;63.42
66035;HTU21D;52805;51.074;5.842;2024-02-28T05:43:33;4.67;63.12
66035;HTU21D;52805;51.074;5.842;2024-02-28T05:45:59;4.65;62.01
66035;HTU21D;52805;51.074;5.842;2024-02-28T05:48:25;4.64;62.95
66035;HTU21D;52805;51.074;5.842;2024-02-28T05:50:50;4.65;62.01
66035;HTU21D;52805;51.074;5.842;2024-02-28T05:53:16;4.64;62.79
66035;HTU21D;52805;51.074;5.842;2024-02-28T05:55:42;4.64;62.58
66035;HTU21D;52805;51.074;5.842;2024-02-28T05:58:07;4.65;62.70
66035;HTU21D;52805;51.074;5.842;2024-02-28T06:00:34;4.67;62.18
66035;HTU21D;52805;51.074;5.842;2024-02-28T06:03:00;4.66;62.73
66035;HTU21D;52805;51.074;5.842;2024-02-28T06:05:26;4.68;63.12
66035;HTU21D;52805;51.074;5.842;2024-02-28T06:07:52;4.73;63.27
66035;HTU21D;52805;51.074;5.842;2024-02-28T06:10:17;4.72;62.66
66035;HTU21D;52805;51.074;5.842;2024-02-28T06:12:43;4.74;62.95
66035;HTU21D;52805;51.074;5.842;2024-02-28T06:15:09;4.77;63.18
66035;HTU21D;52805;51.074;5.842;2024-02-28T06:17:34;4.79;62.88
66035;HTU21D;52805;51.074;5.842;2024-02-28T06:20:00;4.82;62.95
66035;HTU21D;52805;51.074;5.842;2024-02-28T06:22:26;4.83;62.57
66035;HTU21D;52805;51.074;5.842;2024-02-28T06:24:51;4.83;63.81
66035;HTU21D;52805;51.074;5.842;2024-02-28T06:27:17;4.86;63.11
66035;HTU21D;52805;51.074;5.842;2024-02-28T06:29:42;4.92;63.19
66035;HTU21D;52805;51.074;5.842;2024-02-28T06:32:08;4.91;62.73
66035;HTU21D;52805;51.074;5.842;2024-02-28T06:34:34;4.93;62.46
66035;HTU21D;52805;51.074;5.842;2024-02-28T06:36:59;4.94;62.78
66035;HTU21D;52805;51.074;5.842;2024-02-28T06:39:25;4.94;63.87
66035;HTU21D;52805;51.074;5.842;2024-02-28T06:41:51;4.93;63.47
66035;HTU21D;52805;51.074;5.842;2024-02-28T06:44:20;4.98;63.33
66035;HTU21D;52805;51.074;5.842;2024-02-28T06:46:46;5.04;63.71
66035;HTU21D;52805;51.074;5.842;2024-02-28T06:49:11;5.08;64.70
66035;HTU21D;52805;51.074;5.842;2024-02-28T06:51:37;5.12;64.00
66035;HTU21D;52805;51.074;5.842;2024-02-28T06:54:03;5.17;63.92
66035;HTU21D;52805;51.074;5.842;2024-02-28T06:56:30;5.21;64.47
66035;HTU21D;52805;51.074;5.842;2024-02-28T06:58:56;5.26;63.78
66035;HTU21D;52805;51.074;5.842;2024-02-28T07:01:22;5.32;64.66
66035;HTU21D;52805;51.074;5.842;2024-02-28T07:03:47;5.35;63.68
66035;HTU21D;52805;51.074;5.842;2024-02-28T07:06:13;5.40;64.71
66035;HTU21D;52805;51.074;5.842;2024-02-28T07:08:39;5.47;64.47
66035;HTU21D;52805;51.074;5.842;2024-02-28T07:11:04;5.48;63.38
66035;HTU21D;52805;51.074;5.842;2024-02-28T07:13:30;5.48;64.37
66035;HTU21D;52805;51.074;5.842;2024-02-28T07:15:56;5.50;63.57
66035;HTU21D;52805;51.074;5.842;2024-02-28T07:18:23;5.56;64.34
66035;HTU21D;52805;51.074;5.842;2024-02-28T07:20:51;5.57;63.60
66035;HTU21D;52805;51.074;5.842;2024-02-28T07:23:17;5.64;64.74
66035;HTU21D;52805;51.074;5.842;2024-02-28T07:25:43;5.68;64.22
66035;HTU21D;52805;51.074;5.842;2024-02-28T07:28:09;5.70;63.98
66035;HTU21D;52805;51.074;5.842;2024-02-28T07:30:34;5.75;64.63
66035;HTU21D;52805;51.074;5.842;2024-02-28T07:33:01;5.79;63.98
66035;HTU21D;52805;51.074;5.842;2024-02-28T07:35:26;5.83;63.73
66035;HTU21D;52805;51.074;5.842;2024-02-28T07:37:52;5.85;64.09
66035;HTU21D;52805;51.074;5.842;2024-02-28T07:40:18;5.91;64.52
66035;HTU21D;52805;51.074;5.842;2024-02-28T07:42:44;5.96;64.85
66035;HTU21D;52805;51.074;5.842;2024-02-28T07:45:10;5.97;64.71
66035;HTU21D;52805;51.074;5.842;2024-02-28T07:47:35;5.97;64.34
66035;HTU21D;52805;51.074;5.842;2024-02-28T07:50:02;6.00;64.72
66035;HTU21D;52805;51.074;5.842;2024-02-28T07:52:28;6.00;64.40
66035;HTU21D;52805;51.074;5.842;2024-02-28T07:54:53;6.00;64.53
66035;HTU21D;52805;51.074;5.842;2024-02-28T07:57:19;6.04;64.76
66035;HTU21D;52805;51.074;5.842;2024-02-28T07:59:45;6.06;64.62
66035;HTU21D;52805;51.074;5.842;2024-02-28T08:02:10;6.06;63.92
66035;HTU21D;52805;51.074;5.842;2024-02-28T08:04:39;6.11;64.69
66035;HTU21D;52805;51.074;5.842;2024-02-28T08:07:05;6.12;64.27
66035;HTU21D;52805;51.074;5.842;2024-02-28T08:09:31;6.17;64.17
66035;HTU21D;52805;51.074;5.842;2024-02-28T08:11:57;6.21;63.91
66035;HTU21D;52805;51.074;5.842;2024-02-28T08:14:24;6.30;64.84
66035;HTU21D;52805;51.074;5.842;2024-02-28T08:16:50;6.35;64.89
66035;HTU21D;52805;51.074;5.842;2024-02-28T08:19:16;6.38;63.51
66035;HTU21D;52805;51.074;5.842;2024-02-28T08:21:42;6.38;63.14
66035;HTU21D;52805;51.074;5.842;2024-02-28T08:24:08;6.39;64.32
66035;HTU21D;52805;51.074;5.842;2024-02-28T08:26:34;6.41;64.37
66035;HTU21D;52805;51.074;5.842;2024-02-28T08:29:01;6.41;62.98
66035;HTU21D;52805;51.074;5.842;2024-02-28T08:31:28;6.39;63.05
66035;HTU21D;52805;51.074;5.842;2024-02-28T08:33:53;6.41;63.57
66035;HTU21D;52805;51.074;5.842;2024-02-28T08:36:21;6.40;64.01
66035;HTU21D;52805;51.074;5.842;2024-02-28T08:38:47;6.43;63.17
66035;HTU21D;52805;51.074;5.842;2024-02-28T08:41:12;6.50;62.92
66035;HTU21D;52805;51.074;5.842;2024-02-28T08:43:40;6.52;63.31
66035;HTU21D;52805;51.074;5.842;2024-02-28T08:46:06;6.56;62.86
66035;HTU21D;52805;51.074;5.842;2024-02-28T08:48:32;6.61;63.22
66035;HTU21D;52805;51.074;5.842;2024-02-28T08:50:59;6.71;63.09
66035;HTU21D;52805;51.074;5.842;2024-02-28T08:53:28;6.70;63.46
66035;HTU21D;52805;51.074;5.842;2024-02-28T08:55:53;6.72;62.77
66035;HTU21D;52805;51.074;5.842;2024-02-28T08:58:19;6.78;63.11
66035;HTU21D;52805;51.074;5.842;2024-02-28T09:00:45;6.81;62.43
66035;HTU21D;52805;51.074;5.842;2024-02-28T09:03:10;6.87;63.66
66035;HTU21D;52805;51.074;5.842;2024-02-28T09:05:36;6.98;62.89
66035;HTU21D;52805;51.074;5.842;2024-02-28T09:08:02;7.07;62.50
66035;HTU21D;52805;51.074;5.842;2024-02-28T09:10:27;7.16;63.17
66035;HTU21D;52805;51.074;5.842;2024-02-28T09:12:55;7.28;64.05
66035;HTU21D;52805;51.074;5.842;2024-02-28T09:15:21;7.39;62.63
66035;HTU21D;52805;51.074;5.842;2024-02-28T09:17:46;7.54;63.24
66035;HTU21D;52805;51.074;5.842;2024-02-28T09:20:12;7.56;62.51
66035;HTU21D;52805;51.074;5.842;2024-02-28T09:22:38;7.59;62.60
66035;HTU21D;52805;51.074;5.842;2024-02-28T09:25:06;7.64;61.89
66035;HTU21D;52805;51.074;5.842;2024-02-28T09:27:32;7.68;61.79
66035;HTU21D;52805;51.074;5.842;2024-02-28T09:29:57;7.71;62.41
66035;HTU21D;52805;51.074;5.842;2024-02-28T09:32:23;7.72;62.58
66035;HTU21D;52805;51.074;5.842;2024-02-28T09:34:48;7.70;60.56
66035;HTU21D;52805;51.074;5.842;2024-02-28T09:37:14;7.61;60.86
66035;HTU21D;52805;51.074;5.842;2024-02-28T09:39:43;7.55;60.54
66035;HTU21D;52805;51.074;5.842;2024-02-28T09:42:10;7.54;61.07
66035;HTU21D;52805;51.074;5.842;2024-02-28T09:44:36;7.57;60.57
66035;HTU21D;52805;51.074;5.842;2024-02-28T09:47:02;7.62;59.57
66035;HTU21D;52805;51.074;5.842;2024-02-28T09:49:31;7.69;60.37
66035;HTU21D;52805;51.074;5.842;2024-02-28T09:51:58;7.74;60.50
66035;HTU21D;52805;51.074;5.842;2024-02-28T09:54:25;7.78;59.65
66035;HTU21D;52805;51.074;5.842;2024-02-28T09:56:51;7.85;59.31
66035;HTU21D;52805;51.074;5.842;2024-02-28T09:59:19;7.96;59.55
66035;HTU21D;52805;51.074;5.842;2024-02-28T10:01:55;8.08;58.17
66035;HTU21D;52805;51.074;5.842;2024-02-28T10:04:21;8.09;58.80
66035;HTU21D;52805;51.074;5.842;2024-02-28T10:06:47;8.19;58.64
66035;HTU21D;52805;51.074;5.842;2024-02-28T10:09:15;8.26;58.70
66035;HTU21D;52805;51.074;5.842;2024-02-28T10:11:42;8.30;58.41
66035;HTU21D;52805;51.074;5.842;2024-02-28T10:14:11;8.29;57.73
66035;HTU21D;52805;51.074;5.842;2024-02-28T10:16:36;8.24;57.76
66035;HTU21D;52805;51.074;5.842;2024-02-28T10:19:02;8.27;57.12
66035;HTU21D;52805;51.074;5.842;2024-02-28T10:21:30;8.31;56.89
66035;HTU21D;52805;51.074;5.842;2024-02-28T10:23:58;8.32;56.95
66035;HTU21D;52805;51.074;5.842;2024-02-28T10:26:24;8.39;57.11
66035;HTU21D;52805;51.074;5.842;2024-02-28T10:28:51;8.42;57.36
66035;HTU21D;52805;51.074;5.842;2024-02-28T10:31:17;8.45;57.58
66035;HTU21D;52805;51.074;5.842;2024-02-28T10:33:43;8.51;56.29
66035;HTU21D;52805;51.074;5.842;2024-02-28T10:36:09;8.56;56.58
66035;HTU21D;52805;51.074;5.842;2024-02-28T10:38:35;8.61;56.29
66035;HTU21D;52805;51.074;5.842;2024-02-28T10:41:02;8.66;55.21
66035;HTU21D;52805;51.074;5.842;2024-02-28T10:43:29;8.73;55.15
66035;HTU21D;52805;51.074;5.842;2024-02-28T10:45:58;8.86;56.33
66035;HTU21D;52805;51.074;5.842;2024-02-28T10:48:25;8.94;54.64
66035;HTU21D;52805;51.074;5.842;2024-02-28T10:50:51;9.03;54.32
66035;HTU21D;52805;51.074;5.842;2024-02-28T10:53:32;9.08;53.58
66035;HTU21D;52805;51.074;5.842;2024-02-28T10:56:02;9.14;54.03
66035;HTU21D;52805;51.074;5.842;2024-02-28T10:58:35;9.23;53.96
66035;HTU21D;52805;51.074;5.842;2024-02-28T11:01:03;9.31;54.04
66035;HTU21D;52805;51.074;5.842;2024-02-28T11:03:30;9.36;52.89
66035;HTU21D;52805;51.074;5.842;2024-02-28T11:05:55;9.39;53.47
66035;HTU21D;52805;51.074;5.842;2024-02-28T11:08:23;9.40;53.09
66035;HTU21D;52805;51.074;5.842;2024-02-28T11:10:57;9.49;53.56
66035;HTU21D;52805;51.074;5.842;2024-02-28T11:13:24;9.57;54.22
66035;HTU21D;52805;51.074;5.842;2024-02-28T11:15:51;9.62;52.76
66035;HTU21D;52805;51.074;5.842;2024-02-28T11:18:17;9.66;52.99
66035;HTU21D;52805;51.074;5.842;2024-02-28T11:20:43;9.69;52.72
66035;HTU21D;52805;51.074;5.842;2024-02-28T11:23:12;9.76;53.12
66035;HTU21D;52805;51.074;5.842;2024-02-28T11:25:37;9.79;52.96
66035;HTU21D;52805;51.074;5.842;2024-02-28T11:28:04;9.82;52.31
66035;HTU21D;52805;51.074;5.842;2024-02-28T11:30:29;9.85;51.82
66035;HTU21D;52805;51.074;5.842;2024-02-28T11:32:56;9.89;51.01
66035;HTU21D;52805;51.074;5.842;2024-02-28T11:35:27;9.92;50.49
66035;HTU21D;52805;51.074;5.842;2024-02-28T11:37:56;10.03;51.40
66035;HTU21D;52805;51.074;5.842;2024-02-28T11:40:26;10.14;50.16
66035;HTU21D;52805;51.074;5.842;2024-02-28T11:42:53;10.22;50.32
66035;HTU21D;52805;51.074;5.842;2024-02-28T11:45:19;10.29;49.40
66035;HTU21D;52805;51.074;5.842;2024-02-28T11:47:45;10.35;49.36
66035;HTU21D;52805;51.074;5.842;2024-02-28T11:50:11;10.44;49.09
66035;HTU21D;52805;51.074;5.842;2024-02-28T11:52:37;10.50;48.63
66035;HTU21D;52805;51.074;5.842;2024-02-28T11:55:04;10.57;48.57
66035;HTU21D;52805;51.074;5.842;2024-02-28T11:57:29;10.64;48.18
66035;HTU21D;52805;51.074;5.842;2024-02-28T12:00:08;10.65;47.50
66035;HTU21D;52805;51.074;5.842;2024-02-28T12:02:40;10.72;47.90
66035;HTU21D;52805;51.074;5.842;2024-02-28T12:05:06;10.82;46.34
66035;HTU21D;52805;51.074;5.842;2024-02-28T12:07:32;10.87;46.36
66035;HTU21D;52805;51.074;5.842;2024-02-28T12:09:59;10.95;45.99
66035;HTU21D;52805;51.074;5.842;2024-02-28T12:12:27;11.02;45.84
66035;HTU21D;52805;51.074;5.842;2024-02-28T12:14:52;11.12;44.95
66035;HTU21D;52805;51.074;5.842;2024-02-28T12:17:18;11.19;45.39
66035;HTU21D;52805;51.074;5.842;2024-02-28T12:19:44;11.29;44.32
66035;HTU21D;52805;51.074;5.842;2024-02-28T12:22:10;11.30;43.88
66035;HTU21D;52805;51.074;5.842;2024-02-28T12:24:36;11.36;44.06
66035;HTU21D;52805;51.074;5.842;2024-02-28T12:27:02;11.42;43.51
66035;HTU21D;52805;51.074;5.842;2024-02-28T12:29:27;11.49;43.25
66035;HTU21D;52805;51.074;5.842;2024-02-28T12:31:53;11.55;43.18
66035;HTU21D;52805;51.074;5.842;2024-02-28T12:34:19;11.58;42.41
66035;HTU21D;52805;51.074;5.842;2024-02-28T12:36:44;11.61;42.28
66035;HTU21D;52805;51.074;5.842;2024-02-28T12:39:10;11.66;42.65
66035;HTU21D;52805;51.074;5.842;2024-02-28T12:41:40;11.74;42.28
66035;HTU21D;52805;51.074;5.842;2024-02-28T12:44:06;11.72;41.71
66035;HTU21D;52805;51.074;5.842;2024-02-28T12:46:34;11.71;41.62
66035;HTU21D;52805;51.074;5.842;2024-02-28T12:49:01;11.68;41.21
66035;HTU21D;52805;51.074;5.842;2024-02-28T12:54:07;11.75;41.24
66035;HTU21D;52805;51.074;5.842;2024-02-28T12:56:34;11.82;40.99
66035;HTU21D;52805;51.074;5.842;2024-02-28T12:59:00;11.84;39.85
66035;HTU21D;52805;51.074;5.842;2024-02-28T13:01:26;11.83;39.33
66035;HTU21D;52805;51.074;5.842;2024-02-28T13:03:52;11.79;39.58
66035;HTU21D;52805;51.074;5.842;2024-02-28T13:06:18;11.75;39.92
66035;HTU21D;52805;51.074;5.842;2024-02-28T13:08:44;11.72;40.01
66035;HTU21D;52805;51.074;5.842;2024-02-28T13:11:10;11.72;39.12
66035;HTU21D;52805;51.074;5.842;2024-02-28T13:13:36;11.67;39.78
66035;HTU21D;52805;51.074;5.842;2024-02-28T13:16:02;11.68;39.20
66035;HTU21D;52805;51.074;5.842;2024-02-28T13:18:28;11.63;38.82
66035;HTU21D;52805;51.074;5.842;2024-02-28T13:20:53;11.63;39.65
66035;HTU21D;52805;51.074;5.842;2024-02-28T13:23:19;11.71;39.04
66035;HTU21D;52805;51.074;5.842;2024-02-28T13:25:45;11.73;39.49
66035;HTU21D;52805;51.074;5.842;2024-02-28T13:28:10;11.79;39.00
66035;HTU21D;52805;51.074;5.842;2024-02-28T13:30:36;11.86;38.35
66035;HTU21D;52805;51.074;5.842;2024-02-28T13:33:04;11.86;38.20
66035;HTU21D;52805;51.074;5.842;2024-02-28T13:35:30;11.91;38.56
66035;HTU21D;52805;51.074;5.842;2024-02-28T13:37:56;12.03;38.83
66035;HTU21D;52805;51.074;5.842;2024-02-28T13:40:26;12.10;38.16
66035;HTU21D;52805;51.074;5.842;2024-02-28T13:42:53;12.15;38.01
66035;HTU21D;52805;51.074;5.842;2024-02-28T13:45:18;12.27;37.88
66035;HTU21D;52805;51.074;5.842;2024-02-28T13:47:45;12.34;36.92
66035;HTU21D;52805;51.074;5.842;2024-02-28T13:50:10;12.41;36.37
66035;HTU21D;52805;51.074;5.842;2024-02-28T13:52:36;12.44;36.46
66035;HTU21D;52805;51.074;5.842;2024-02-28T13:55:02;12.50;35.77
66035;HTU21D;52805;51.074;5.842;2024-02-28T13:57:28;12.52;36.24
66035;HTU21D;52805;51.074;5.842;2024-02-28T13:59:54;12.53;35.79
66035;HTU21D;52805;51.074;5.842;2024-02-28T14:02:21;12.57;35.88
66035;HTU21D;52805;51.074;5.842;2024-02-28T14:04:47;12.60;36.13
66035;HTU21D;52805;51.074;5.842;2024-02-28T14:07:15;12.57;36.05
66035;HTU21D;52805;51.074;5.842;2024-02-28T14:09:42;12.60;36.37
66035;HTU21D;52805;51.074;5.842;2024-02-28T14:12:09;12.61;36.30
66035;HTU21D;52805;51.074;5.842;2024-02-28T14:14:35;12.62;36.42
66035;HTU21D;52805;51.074;5.842;2024-02-28T14:17:01;12.61;36.58
66035;HTU21D;52805;51.074;5.842;2024-02-28T14:19:26;12.61;35.81
66035;HTU21D;52805;51.074;5.842;2024-02-28T14:21:52;12.58;36.35
66035;HTU21D;52805;51.074;5.842;2024-02-28T14:24:18;12.56;36.05
66035;HTU21D;52805;51.074;5.842;2024-02-28T14:26:47;12.55;36.46
66035;HTU21D;52805;51.074;5.842;2024-02-28T14:29:14;12.57;36.85
66035;HTU21D;52805;51.074;5.842;2024-02-28T14:31:40;12.61;36.66
66035;HTU21D;52805;51.074;5.842;2024-02-28T14:34:07;12.58;36.71
66035;HTU21D;52805;51.074;5.842;2024-02-28T14:36:33;12.58;36.38
66035;HTU21D;52805;51.074;5.842;2024-02-28T14:38:58;12.56;37.27
66035;HTU21D;52805;51.074;5.842;2024-02-28T14:41:25;12.52;36.89
66035;HTU21D;52805;51.074;5.842;2024-02-28T14:43:51;12.48;37.33
66035;HTU21D;52805;51.074;5.842;2024-02-28T14:46:16;12.49;37.75
66035;HTU21D;52805;51.074;5.842;2024-02-28T14:48:44;12.46;37.03
66035;HTU21D;52805;51.074;5.842;2024-02-28T14:51:20;12.47;37.95
66035;HTU21D;52805;51.074;5.842;2024-02-28T14:53:47;12.43;37.57
66035;HTU21D;52805;51.074;5.842;2024-02-28T14:56:13;12.43;37.55
66035;HTU21D;52805;51.074;5.842;2024-02-28T14:58:39;12.43;37.61
66035;HTU21D;52805;51.074;5.842;2024-02-28T15:01:05;12.45;37.92
66035;HTU21D;52805;51.074;5.842;2024-02-28T15:03:31;12.47;37.61
66035;HTU21D;52805;51.074;5.842;2024-02-28T15:05:56;12.51;38.13
66035;HTU21D;52805;51.074;5.842;2024-02-28T15:08:22;12.49;37.77
66035;HTU21D;52805;51.074;5.842;2024-02-28T15:10:49;12.50;37.66
66035;HTU21D;52805;51.074;5.842;2024-02-28T15:13:15;12.52;37.50
66035;HTU21D;52805;51.074;5.842;2024-02-28T15:15:41;12.53;37.40
66035;HTU21D;52805;51.074;5.842;2024-02-28T15:18:06;12.51;37.09
66035;HTU21D;52805;51.074;5.842;2024-02-28T15:20:32;12.49;37.13
66035;HTU21D;52805;51.074;5.842;2024-02-28T15:22:58;12.44;37.29
66035;HTU21D;52805;51.074;5.842;2024-02-28T15:25:24;12.36;37.63